Time;durP1;ratioP1;P1;durP2;ratioP2;P2;SDS_P1;SDS_P2;PMS_P1;PMS_P2;Temp;Humidity;BMP_temperature;BMP_pressure;BME280_temperature;BME280_humidity;BME280_pressure;Samples;Min_cycle;Max_cycle;Signal;HPM_P1;HPM_P2
2023/03/02 00:01:08;;;;;;;1999.90;999.90;;;4.30;1.00;;;;;;4971101;28;20134;-86
2023/03/02 00:03:36;;;;;;;1999.90;999.90;;;5.20;1.00;;;;;;4972977;28;20055;-88
2023/03/02 00:06:02;;;;;;;1999.90;999.90;;;7.00;1.00;;;;;;4973737;28;20042;-87
2023/03/02 00:08:28;;;;;;;1999.90;999.90;;;4.20;1.00;;;;;;4972282;28;20490;-87
2023/03/02 00:10:56;;;;;;;1999.90;999.90;;;7.00;1.00;;;;;;4972641;28;20077;-87
2023/03/02 00:13:22;;;;;;;;;;;7.30;1.00;;;;;;4974551;28;20118;-88
2023/03/02 00:15:48;;;;;;;1999.90;999.90;;;6.90;1.00;;;;;;4973526;28;20017;-88
2023/03/02 00:18:13;;;;;;;1999.90;999.90;;;5.50;1.00;;;;;;4973680;28;20069;-87
2023/03/02 00:20:39;;;;;;;1999.90;999.90;;;;;;;;;;4971566;28;20051;-85
2023/03/02 00:23:05;;;;;;;1999.90;999.90;;;6.00;1.00;;;;;;4972332;28;20085;-88
2023/03/02 00:25:31;;;;;;;1999.90;999.90;;;3.80;1.00;;;;;;4970023;28;20082;-87
2023/03/02 00:27:57;;;;;;;1999.90;999.90;;;;;;;;;;4973029;28;20074;-85
2023/03/02 00:30:23;;;;;;;1999.90;999.90;;;6.00;1.00;;;;;;4971899;28;20050;-88
2023/03/02 00:32:48;;;;;;;1999.90;999.90;;;4.00;1.00;;;;;;4968324;28;20384;-86
2023/03/02 00:35:15;;;;;;;1999.90;999.90;;;3.60;1.00;;;;;;4967189;28;20050;-88
2023/03/02 00:37:40;;;;;;;1999.90;999.90;;;8.60;1.00;;;;;;4971438;28;20462;-88
2023/03/02 00:40:08;;;;;;;1999.90;999.90;;;5.00;1.00;;;;;;4973104;28;20043;-85
2023/03/02 00:42:35;;;;;;;1999.90;999.90;;;3.40;1.00;;;;;;4970144;28;20170;-88
2023/03/02 00:45:01;;;;;;;1999.90;999.90;;;5.60;1.00;;;;;;4972371;28;20451;-88
2023/03/02 00:47:28;;;;;;;1999.90;999.90;;;5.10;1.00;;;;;;4971810;28;20082;-88
2023/03/02 00:49:54;;;;;;;1999.90;999.90;;;4.80;1.00;;;;;;4970498;28;20053;-88
2023/03/02 00:52:19;;;;;;;1999.90;999.90;;;4.50;1.00;;;;;;4966614;28;20051;-88
2023/03/02 00:54:45;;;;;;;1999.90;999.90;;;5.60;1.00;;;;;;4975858;28;20074;-88
2023/03/02 00:57:11;;;;;;;1999.90;999.90;;;4.60;1.00;;;;;;4974371;28;20043;-87
2023/03/02 00:59:38;;;;;;;1999.90;999.90;;;5.20;1.00;;;;;;4975842;28;20154;-88
2023/03/02 01:02:04;;;;;;;1999.90;999.90;;;5.40;1.00;;;;;;4972539;28;20039;-85
2023/03/02 01:04:36;;;;;;;1999.90;999.90;;;4.90;1.00;;;;;;4974873;28;20306;-88
2023/03/02 01:07:05;;;;;;;1999.90;999.90;;;4.30;1.00;;;;;;4960150;28;20141;-87
2023/03/02 01:09:31;;;;;;;1999.90;999.90;;;5.00;1.00;;;;;;4977099;28;20055;-88
2023/03/02 01:11:57;;;;;;;1999.90;999.90;;;4.30;1.00;;;;;;4977373;28;20599;-88
2023/03/02 01:14:24;;;;;;;1999.90;999.90;;;5.00;1.00;;;;;;4976311;28;20058;-88
2023/03/02 01:16:49;;;;;;;1999.90;999.90;;;5.60;1.00;;;;;;4975624;28;20054;-86
2023/03/02 01:19:16;;;;;;;1999.90;999.90;;;4.80;1.00;;;;;;4971807;28;20042;-87
2023/03/02 01:21:42;;;;;;;1999.90;999.90;;;4.80;1.00;;;;;;4959248;28;20047;-88
2023/03/02 01:24:09;;;;;;;1999.90;999.90;;;8.50;1.00;;;;;;4964625;28;20094;-87
2023/03/02 01:26:36;;;;;;;1999.90;999.90;;;4.90;1.00;;;;;;4959315;28;20074;-87
2023/03/02 01:29:02;;;;;;;1999.90;999.90;;;4.80;1.00;;;;;;4974458;28;20047;-87
2023/03/02 01:31:28;;;;;;;1999.90;999.90;;;4.90;1.00;;;;;;4975438;28;20104;-87
2023/03/02 01:33:54;;;;;;;1999.90;999.90;;;;;;;;;;4973031;28;20088;-87
2023/03/02 01:36:22;;;;;;;1999.90;999.90;;;4.50;1.00;;;;;;4972516;28;20062;-87
2023/03/02 01:38:48;;;;;;;;;;;6.30;1.00;;;;;;4976991;28;20403;-86
2023/03/02 01:41:14;;;;;;;1999.90;999.90;;;5.10;1.00;;;;;;4974292;28;19922;-87
2023/03/02 01:43:40;;;;;;;1999.90;999.90;;;;;;;;;;4957820;28;20043;-85
2023/03/02 01:46:24;;;;;;;1999.90;999.90;;;5.40;1.00;;;;;;4976699;28;20043;-87
2023/03/02 01:48:52;;;;;;;1999.90;999.90;;;4.40;1.00;;;;;;4977027;28;20141;-86
2023/03/02 01:51:21;;;;;;;1999.90;999.90;;;4.90;1.00;;;;;;4971705;28;20043;-87
2023/03/02 01:53:54;;;;;;;1999.90;999.90;;;5.50;1.00;;;;;;4974730;28;20055;-86
2023/03/02 01:56:25;;;;;;;1999.90;999.90;;;5.30;1.00;;;;;;4970859;28;20047;-87
2023/03/02 01:59:00;;;;;;;1999.90;999.90;;;4.80;1.00;;;;;;4975477;28;20054;-87
2023/03/02 02:01:29;;;;;;;1999.90;999.90;;;6.40;1.00;;;;;;4973216;28;20114;-87
2023/03/02 02:03:55;;;;;;;1999.90;999.90;;;5.50;1.00;;;;;;4972921;28;20089;-86
2023/03/02 02:06:40;;;;;;;1999.90;999.90;;;3.80;1.00;;;;;;4972386;28;20487;-87
2023/03/02 02:09:11;;;;;;;1999.90;999.90;;;6.60;1.00;;;;;;4973390;28;20078;-88
2023/03/02 02:11:38;;;;;;;1999.90;999.90;;;5.00;1.00;;;;;;4974201;28;20051;-87
2023/03/02 02:14:04;;;;;;;1999.90;999.90;;;6.90;1.00;;;;;;4972412;28;20050;-87
2023/03/02 02:27:32;;;;;;;1999.90;999.90;;;3.50;1.00;;;;;;5236713;22;20097;-81
2023/03/02 02:30:01;;;;;;;1999.90;999.90;;;5.40;1.00;;;;;;4987172;28;20054;-76
2023/03/02 02:32:31;;;;;;;1999.90;999.90;;;4.50;1.00;;;;;;5477685;22;20057;-87
2023/03/02 02:35:10;;;;;;;1999.90;999.90;;;4.70;1.00;;;;;;4991655;28;20100;-87
2023/03/02 02:37:43;;;;;;;1999.90;999.90;;;4.70;1.00;;;;;;4988241;28;20490;-86
2023/03/02 02:40:20;;;;;;;1999.90;999.90;;;5.10;1.00;;;;;;4990429;28;20426;-87
2023/03/02 02:42:50;;;;;;;1999.90;999.90;;;6.00;1.00;;;;;;4992732;28;20132;-87
2023/03/02 02:45:25;;;;;;;1999.90;999.90;;;4.00;1.00;;;;;;4992477;28;20042;-87
2023/03/02 02:47:53;;;;;;;1999.90;999.90;;;3.60;1.00;;;;;;4986511;28;20043;-87
2023/03/02 02:50:24;;;;;;;1999.90;999.90;;;3.50;1.00;;;;;;4992763;28;20074;-87
2023/03/02 02:53:12;;;;;;;1999.90;999.90;;;4.80;1.00;;;;;;4990353;28;20133;-87
2023/03/02 02:55:38;;;;;;;1999.90;999.90;;;6.10;1.00;;;;;;4992279;28;20050;-87
2023/03/02 02:58:24;;;;;;;1999.90;999.90;;;5.60;1.00;;;;;;4990487;28;20042;-87
2023/03/02 03:00:50;;;;;;;1999.90;999.90;;;5.50;1.00;;;;;;4985257;28;20096;-87
2023/03/02 03:03:32;;;;;;;1999.90;999.90;;;4.50;1.00;;;;;;4987197;28;20382;-87
2023/03/02 03:06:00;;;;;;;1999.90;999.90;;;4.50;1.00;;;;;;4988682;28;20112;-85
2023/03/02 03:08:44;;;;;;;1999.90;999.90;;;6.40;1.00;;;;;;4989241;28;20122;-87
2023/03/02 03:11:18;;;;;;;1999.90;999.90;;;4.50;1.00;;;;;;4972889;28;20057;-86
2023/03/02 03:13:45;;;;;;;1999.90;999.90;;;5.10;1.00;;;;;;4989868;28;20092;-87
2023/03/02 03:16:14;;;;;;;1999.90;999.90;;;4.10;1.00;;;;;;4991475;28;20042;-85
2023/03/02 03:18:50;;;;;;;1999.90;999.90;;;4.40;1.00;;;;;;4985093;28;20046;-88
2023/03/02 03:21:20;;;;;;;1999.90;999.90;;;5.70;1.00;;;;;;4988517;28;20483;-84
2023/03/02 03:23:45;;;;;;;1999.90;999.90;;;6.70;1.00;;;;;;4988473;28;20515;-87
2023/03/02 03:26:11;;;;;;;1999.90;999.90;;;;;;;;;;4992216;28;20081;-86
2023/03/02 03:28:37;;;;;;;1999.90;999.90;;;4.10;1.00;;;;;;4972968;28;20420;-87
2023/03/02 03:31:03;;;;;;;1999.90;999.90;;;5.80;1.00;;;;;;4992083;28;20077;-88
2023/03/02 03:33:29;;;;;;;1999.90;999.90;;;3.50;1.00;;;;;;4990827;28;20061;-88
2023/03/02 03:35:54;;;;;;;1999.90;999.90;;;5.70;1.00;;;;;;4991579;28;20139;-88
2023/03/02 03:38:20;;;;;;;1999.90;999.90;;;5.90;1.00;;;;;;4989920;28;20050;-88
2023/03/02 03:40:46;;;;;;;1999.90;999.90;;;5.60;1.00;;;;;;4992112;28;20124;-88
2023/03/02 03:43:13;;;;;;;1999.90;999.90;;;6.50;1.00;;;;;;4994269;28;20050;-87
2023/03/02 03:45:39;;;;;;;1999.90;999.90;;;6.70;1.00;;;;;;4991859;28;20053;-89
2023/03/02 03:48:05;;;;;;;1999.90;999.90;;;3.70;1.00;;;;;;4994835;28;20054;-88
2023/03/02 03:50:31;;;;;;;1999.90;999.90;;;4.80;1.00;;;;;;4991148;28;20061;-89
2023/03/02 03:52:57;;;;;;;1999.90;999.90;;;4.30;1.00;;;;;;4991632;28;20046;-88
2023/03/02 03:55:27;;;;;;;1999.90;999.90;;;4.80;1.00;;;;;;4990715;28;20495;-88
2023/03/02 03:57:52;;;;;;;1999.90;999.90;;;4.60;1.00;;;;;;4991853;28;20494;-88
2023/03/02 04:00:19;;;;;;;1999.90;999.90;;;3.40;1.00;;;;;;4987365;28;20056;-88
2023/03/02 04:02:44;;;;;;;1999.90;999.90;;;5.80;1.00;;;;;;4990427;28;20085;-88
2023/03/02 04:05:11;;;;;;;1999.90;999.90;;;4.40;1.00;;;;;;4942989;28;20070;-87
2023/03/02 04:07:39;;;;;;;1999.90;999.90;;;6.50;1.00;;;;;;4993227;28;20050;-88
2023/03/02 04:10:06;;;;;;;1999.90;999.90;;;6.20;1.00;;;;;;4991375;28;20060;-89
2023/03/02 04:12:34;;;;;;;1999.90;999.90;;;4.30;1.00;;;;;;4992353;28;20042;-89
2023/03/02 04:14:59;;;;;;;1999.90;999.90;;;6.70;1.00;;;;;;4987518;28;20513;-89
2023/03/02 04:17:26;;;;;;;1999.90;999.90;;;3.70;1.00;;;;;;4993883;28;20381;-88
2023/03/02 04:19:52;;;;;;;1999.90;999.90;;;;;;;;;;4989856;28;20046;-88
2023/03/02 04:22:18;;;;;;;1999.90;999.90;;;;;;;;;;4988867;28;20134;-85
2023/03/02 04:24:46;;;;;;;1999.90;999.90;;;4.10;1.00;;;;;;4992947;28;20082;-88
2023/03/02 04:27:12;;;;;;;1999.90;999.90;;;4.20;1.00;;;;;;4992153;28;20510;-87
2023/03/02 04:29:39;;;;;;;1999.90;999.90;;;6.10;1.00;;;;;;4991547;28;20575;-88
2023/03/02 04:32:06;;;;;;;1999.90;999.90;;;4.00;1.00;;;;;;4993575;28;20062;-87
2023/03/02 04:34:32;;;;;;;1999.90;999.90;;;;;;;;;;4991849;28;20062;-88
2023/03/02 04:36:58;;;;;;;1999.90;999.90;;;4.10;1.00;;;;;;4996311;28;20053;-87
2023/03/02 04:39:24;;;;;;;1999.90;999.90;;;2.20;1.00;;;;;;4994631;28;20050;-87
2023/03/02 04:41:50;;;;;;;1999.90;999.90;;;5.80;1.00;;;;;;4996008;28;20046;-88
2023/03/02 04:44:16;;;;;;;1999.90;999.90;;;4.10;6.20;;;;;;4996215;28;20054;-87
2023/03/02 04:46:43;;;;;;;1999.90;999.90;;;4.10;1.00;;;;;;4992893;28;20095;-87
2023/03/02 04:49:08;;;;;;;1999.90;999.90;;;4.20;1.00;;;;;;4995097;28;20042;-88
2023/03/02 04:51:37;;;;;;;1999.90;999.90;;;4.50;1.00;;;;;;4991994;28;20061;-88
2023/03/02 04:54:06;;;;;;;1999.90;999.90;;;3.90;1.00;;;;;;4995882;28;20506;-89
2023/03/02 04:56:33;;;;;;;1999.90;999.90;;;4.40;1.00;;;;;;4996300;28;20046;-88
2023/03/02 04:58:59;;;;;;;1999.90;999.90;;;6.30;1.00;;;;;;4997403;28;20137;-88
2023/03/02 05:01:26;;;;;;;1999.90;999.90;;;5.30;1.00;;;;;;4997592;28;20554;-87
2023/03/02 05:03:52;;;;;;;1999.90;999.90;;;3.90;1.00;;;;;;4994547;28;20054;-88
2023/03/02 05:06:20;;;;;;;1999.90;999.90;;;5.00;1.00;;;;;;4995876;28;20470;-88
2023/03/02 05:08:46;;;;;;;1999.90;999.90;;;5.50;1.00;;;;;;4991200;28;20061;-88
2023/03/02 05:11:20;;;;;;;1999.90;999.90;;;3.40;10.60;;;;;;4992604;28;20047;-88
2023/03/02 05:13:59;;;;;;;1999.90;999.90;;;3.90;1.00;;;;;;4992957;28;20052;-88
2023/03/02 05:16:27;;;;;;;1999.90;999.90;;;5.70;1.00;;;;;;4994731;28;20453;-85
2023/03/02 05:18:54;;;;;;;1999.90;999.90;;;5.90;1.00;;;;;;4995488;28;20053;-87
2023/03/02 05:21:20;;;;;;;1999.90;999.90;;;6.30;1.00;;;;;;4981374;28;20418;-88
2023/03/02 05:23:46;;;;;;;1999.90;999.90;;;4.80;16.90;;;;;;4986816;28;20464;-88
2023/03/02 05:26:12;;;;;;;1999.90;999.90;;;3.90;1.00;;;;;;4995533;28;20046;-88
2023/03/02 05:28:39;;;;;;;1999.90;999.90;;;4.30;1.00;;;;;;4991745;28;20056;-88
2023/03/02 05:31:05;;;;;;;1999.90;999.90;;;2.80;1.00;;;;;;4995760;28;20057;-87
2023/03/02 05:33:30;;;;;;;1999.90;999.90;;;4.20;1.00;;;;;;4993691;28;20061;-86
2023/03/02 05:35:57;;;;;;;1999.90;999.90;;;2.90;1.00;;;;;;4994081;28;20137;-86
2023/03/02 05:38:23;;;;;;;1999.90;999.90;;;6.30;1.00;;;;;;4996417;28;20092;-86
2023/03/02 05:40:48;;;;;;;1999.90;999.90;;;5.00;1.00;;;;;;4995448;28;20137;-86
2023/03/02 05:43:18;;;;;;;1999.90;999.90;;;3.50;2.10;;;;;;4992887;28;20165;-86
2023/03/02 05:45:44;;;;;;;1999.90;999.90;;;;;;;;;;4990991;28;20042;-86
2023/03/02 05:48:12;;;;;;;1999.90;999.90;;;3.90;8.60;;;;;;4992562;28;20108;-86
2023/03/02 05:50:38;;;;;;;1999.90;999.90;;;3.80;1.00;;;;;;4976987;28;20140;-86
2023/03/02 05:53:04;;;;;;;1999.90;999.90;;;3.90;5.70;;;;;;4990154;28;20057;-85
2023/03/02 05:55:35;;;;;;;1999.90;999.90;;;;;;;;;;4993328;28;20038;-84
2023/03/02 05:58:02;;;;;;;1999.90;999.90;;;3.90;12.00;;;;;;4995466;28;20053;-86
2023/03/02 06:00:28;;;;;;;1999.90;999.90;;;5.90;1.00;;;;;;4987973;28;20043;-86
2023/03/02 06:02:55;;;;;;;1999.90;999.90;;;3.70;1.00;;;;;;4991783;28;20050;-85
2023/03/02 06:05:21;;;;;;;1999.90;999.90;;;;;;;;;;4995090;28;20129;-85
2023/03/02 06:07:47;;;;;;;1999.90;999.90;;;4.30;19.80;;;;;;4990025;28;20305;-87
2023/03/02 06:10:13;;;;;;;1999.90;999.90;;;4.20;15.80;;;;;;4989651;28;20038;-86
2023/03/02 06:12:39;;;;;;;1999.90;999.90;;;;;;;;;;4974301;28;20061;-86
2023/03/02 06:15:06;;;;;;;1999.90;999.90;;;3.90;1.00;;;;;;4994018;28;20054;-86
2023/03/02 06:17:32;;;;;;;1999.90;999.90;;;3.90;1.00;;;;;;4994493;28;20042;-86
2023/03/02 06:19:58;;;;;;;1999.90;999.90;;;;;;;;;;4986679;28;20097;-85
2023/03/02 06:22:24;;;;;;;1999.90;999.90;;;;;;;;;;4986288;28;20105;-85
2023/03/02 06:24:50;;;;;;;1999.90;999.90;;;3.50;52.70;;;;;;4991541;28;20046;-87
2023/03/02 06:27:16;;;;;;;1999.90;999.90;;;4.10;51.00;;;;;;4987578;28;20046;-87
2023/03/02 06:29:42;;;;;;;1999.90;999.90;;;;;;;;;;4991068;28;20046;-87
2023/03/02 06:32:09;;;;;;;1999.90;999.90;;;3.90;1.00;;;;;;4988236;28;20062;-87
2023/03/02 06:34:35;;;;;;;1999.90;999.90;;;6.20;1.00;;;;;;4976677;28;20498;-87
2023/03/02 06:37:00;;;;;;;1999.90;999.90;;;3.90;2.00;;;;;;4991302;28;20062;-87
2023/03/02 06:39:26;;;;;;;1999.90;999.90;;;4.50;22.00;;;;;;4991477;28;20054;-87
2023/03/02 06:41:52;;;;;;;1999.90;999.90;;;1.70;35.80;;;;;;4983489;28;20088;-87
2023/03/02 06:44:17;;;;;;;1999.90;999.90;;;3.80;2.30;;;;;;4992720;28;20050;-87
2023/03/02 06:46:44;;;;;;;1999.90;999.90;;;4.00;21.60;;;;;;4991028;28;20046;-87
2023/03/02 06:49:11;;;;;;;1999.90;999.90;;;5.10;1.00;;;;;;4991216;28;20049;-87
2023/03/02 06:51:37;;;;;;;1999.90;999.90;;;4.20;28.60;;;;;;4992251;28;20088;-88
2023/03/02 06:54:05;;;;;;;1999.90;999.90;;;4.30;1.00;;;;;;4976558;28;20054;-87
2023/03/02 06:56:31;;;;;;;1999.90;999.90;;;3.50;40.70;;;;;;4991156;28;20082;-87
2023/03/02 06:58:57;;;;;;;1999.90;999.90;;;4.20;67.30;;;;;;4986448;28;20046;-87
2023/03/02 07:01:23;;;;;;;1999.90;999.90;;;5.00;48.20;;;;;;4988743;28;20109;-87
2023/03/02 07:03:48;;;;;;;1999.90;999.90;;;4.90;36.20;;;;;;4987595;28;20169;-86
2023/03/02 07:06:14;;;;;;;1999.90;999.90;;;;;;;;;;4991974;28;20154;-87
2023/03/02 07:08:40;;;;;;;1999.90;999.90;;;4.00;36.00;;;;;;4990660;28;20100;-88
2023/03/02 07:11:09;;;;;;;1999.90;999.90;;;4.00;39.50;;;;;;4988157;28;20042;-87
2023/03/02 07:13:36;;;;;;;1999.90;999.90;;;4.20;14.60;;;;;;4989417;28;20054;-87
2023/03/02 07:16:09;;;;;;;1999.90;999.90;;;3.60;43.30;;;;;;4992605;28;20096;-88
2023/03/02 07:18:34;;;;;;;1999.90;999.90;;;4.10;10.90;;;;;;4991690;28;20050;-88
2023/03/02 07:21:00;;;;;;;1999.90;999.90;;;4.30;35.60;;;;;;4991856;28;20042;-87
2023/03/02 07:23:26;;;;;;;1999.90;999.90;;;4.10;32.90;;;;;;4990686;28;20050;-89
2023/03/02 07:25:52;;;;;;;1999.90;999.90;;;;;;;;;;4995848;28;20042;-88
2023/03/02 07:28:17;;;;;;;1999.90;999.90;;;4.10;1.00;;;;;;4989835;28;20060;-87
2023/03/02 07:30:43;;;;;;;1999.90;999.90;;;4.30;40.40;;;;;;4982982;28;20050;-87
2023/03/02 07:33:09;;;;;;;1999.90;999.90;;;4.10;33.30;;;;;;4970605;28;20560;-87
2023/03/02 07:35:34;;;;;;;1999.90;999.90;;;4.80;10.90;;;;;;4990178;28;20057;-87
2023/03/02 07:38:00;;;;;;;1999.90;999.90;;;4.80;38.80;;;;;;4991808;28;20139;-89
2023/03/02 07:40:26;;;;;;;1999.90;999.90;;;;;;;;;;4969448;28;20133;-88
2023/03/02 07:42:52;;;;;;;1999.90;999.90;;;3.40;39.60;;;;;;4990629;28;20414;-90
2023/03/02 07:45:19;;;;;;;1999.90;999.90;;;2.90;46.00;;;;;;4986571;28;20051;-90
2023/03/02 07:47:45;;;;;;;1999.90;999.90;;;5.90;31.70;;;;;;4992732;28;20086;-88
2023/03/02 07:50:11;;;;;;;1999.90;999.90;;;4.80;10.30;;;;;;4993165;28;20128;-88
2023/03/02 07:52:36;;;;;;;1999.90;999.90;;;6.70;9.30;;;;;;4994438;28;20074;-88
2023/03/02 07:55:02;;;;;;;1999.90;999.90;;;3.80;65.00;;;;;;4991293;28;20078;-88
2023/03/02 07:57:28;;;;;;;1999.90;914.13;;;4.30;4.90;;;;;;4994773;28;20517;-88
2023/03/02 07:59:54;;;;;;;1999.90;999.90;;;6.60;38.30;;;;;;4991343;28;20030;-89
2023/03/02 08:02:19;;;;;;;1999.90;999.90;;;4.40;10.20;;;;;;4995047;28;20045;-88
2023/03/02 08:04:45;;;;;;;1999.90;999.90;;;3.10;36.00;;;;;;4976652;28;20440;-89
2023/03/02 08:07:11;;;;;;;1999.90;999.90;;;5.90;29.30;;;;;;4992090;28;20065;-88
2023/03/02 08:09:38;;;;;;;1999.90;737.05;;;4.60;1.00;;;;;;4993226;28;20403;-88
2023/03/02 08:12:04;;;;;;;1999.90;899.42;;;4.60;75.40;;;;;;4992407;28;20054;-88
2023/03/02 08:14:30;;;;;;;1999.90;999.90;;;5.00;17.90;;;;;;4981630;28;20540;-88
2023/03/02 08:16:55;;;;;;;1999.90;991.75;;;4.30;14.90;;;;;;4973198;28;20047;-88
2023/03/02 08:19:21;;;;;;;1999.90;999.90;;;4.70;1.00;;;;;;4974424;28;20479;-88
2023/03/02 08:21:47;;;;;;;1999.90;688.40;;;5.10;15.80;;;;;;4972890;28;20051;-88
2023/03/02 08:24:12;;;;;;;1999.90;999.90;;;4.50;18.30;;;;;;4990329;28;20043;-88
2023/03/02 08:26:38;;;;;;;1999.90;999.90;;;4.70;1.00;;;;;;4973675;28;20105;-88
2023/03/02 08:29:05;;;;;;;1999.90;971.13;;;;;;;;;;4973683;28;20443;-88
2023/03/02 08:31:31;;;;;;;1999.90;999.90;;;6.90;29.40;;;;;;4975448;28;20051;-88
2023/03/02 08:33:58;;;;;;;1999.90;999.90;;;5.40;29.70;;;;;;4993296;28;20069;-88
2023/03/02 08:36:24;;;;;;;1999.90;999.90;;;6.80;1.00;;;;;;4993374;28;20121;-88
2023/03/02 08:38:50;;;;;;;1999.90;999.90;;;4.10;19.00;;;;;;4992099;28;20158;-88
2023/03/02 08:41:19;;;;;;;1999.90;999.90;;;4.70;20.30;;;;;;4992467;28;20136;-87
2023/03/02 08:43:45;;;;;;;1999.90;976.15;;;5.10;1.00;;;;;;4992947;28;20498;-89
2023/03/02 08:46:13;;;;;;;1999.90;999.90;;;4.30;1.00;;;;;;4992925;28;20038;-88
2023/03/02 08:48:39;;;;;;;1999.90;949.22;;;4.90;1.00;;;;;;4991650;28;20471;-89
2023/03/02 08:51:17;;;;;;;1999.90;999.90;;;4.50;1.00;;;;;;4993258;28;20053;-88
2023/03/02 08:53:46;;;;;;;1999.90;971.65;;;5.60;1.00;;;;;;4992678;28;20039;-88
2023/03/02 08:56:16;;;;;;;1999.90;999.90;;;3.10;1.00;;;;;;4992973;28;20041;-89
2023/03/02 08:58:41;;;;;;;1999.90;999.90;;;4.70;1.00;;;;;;4992384;28;20047;-89
2023/03/02 09:01:13;;;;;;;1999.90;999.90;;;6.30;1.00;;;;;;4975925;28;20050;-89
2023/03/02 09:03:39;;;;;;;1999.90;994.42;;;6.10;1.00;;;;;;4992743;28;20046;-88
2023/03/02 09:06:05;;;;;;;1999.90;999.90;;;6.60;1.00;;;;;;4991532;28;20049;-89
2023/03/02 09:08:30;;;;;;;1999.90;999.90;;;6.60;1.00;;;;;;4992930;28;20057;-88
2023/03/02 09:10:56;;;;;;;1999.90;999.90;;;5.10;1.00;;;;;;4992692;28;20042;-88
2023/03/02 09:13:22;;;;;;;1999.90;999.90;;;6.70;13.50;;;;;;4992874;28;20046;-88
2023/03/02 09:15:47;;;;;;;1999.90;999.90;;;5.80;1.00;;;;;;4994250;28;20510;-88
2023/03/02 09:18:13;;;;;;;1999.90;999.90;;;5.40;1.00;;;;;;4994655;28;20140;-88
2023/03/02 09:20:39;;;;;;;1999.90;999.90;;;5.90;1.00;;;;;;4986452;28;20113;-89
2023/03/02 09:23:05;;;;;;;1999.90;999.90;;;;;;;;;;4976103;28;20053;-88
2023/03/02 09:25:31;;;;;;;1999.90;999.90;;;;;;;;;;4977330;28;20039;-88
2023/03/02 09:27:56;;;;;;;1999.90;999.90;;;5.10;1.00;;;;;;4977009;28;20043;-88
2023/03/02 09:30:22;;;;;;;1999.90;999.90;;;6.10;1.00;;;;;;4977190;28;20057;-88
2023/03/02 09:32:48;;;;;;;1999.90;999.90;;;7.00;1.00;;;;;;4988922;28;20387;-88
2023/03/02 09:35:14;;;;;;;1999.90;999.90;;;;;;;;;;4996275;28;20054;-88
2023/03/02 09:37:40;;;;;;;1999.90;999.90;;;6.40;1.00;;;;;;4979427;28;20050;-88
2023/03/02 09:40:19;;;;;;;1999.90;999.90;;;4.60;1.00;;;;;;4995876;28;20054;-89
2023/03/02 09:43:03;;;;;;;1999.90;999.90;;;6.80;1.00;;;;;;4996551;28;20049;-87
2023/03/02 09:45:37;;;;;;;1999.90;927.15;;;6.70;1.00;;;;;;4996260;28;20050;-88
2023/03/02 09:48:25;;;;;;;1999.90;999.90;;;5.50;1.00;;;;;;4978697;28;20152;-88
2023/03/02 09:51:04;;;;;;;1999.90;999.90;;;4.90;1.00;;;;;;4977275;28;20051;-89
2023/03/02 09:53:38;;;;;;;1999.90;999.90;;;7.50;1.00;;;;;;4978011;28;20055;-88
2023/03/02 09:56:12;;;;;;;1999.90;999.90;;;7.30;1.00;;;;;;4988694;28;20125;-88
2023/03/02 09:58:41;;;;;;;1999.90;999.90;;;6.80;1.00;;;;;;4995157;28;20422;-89
2023/03/02 10:01:14;;;;;;;1999.90;999.90;;;6.40;1.00;;;;;;4995580;28;20056;-89
2023/03/02 10:03:46;;;;;;;1999.90;999.90;;;6.90;1.00;;;;;;4994262;28;20086;-88
2023/03/02 10:06:12;;;;;;;1999.90;999.90;;;4.90;1.00;;;;;;4995119;28;20038;-89
2023/03/02 10:08:39;;;;;;;1999.90;999.90;;;7.40;1.00;;;;;;4994312;28;20383;-89
2023/03/02 10:11:17;;;;;;;1999.90;999.90;;;5.60;1.00;;;;;;4993746;28;20094;-88
2023/03/02 10:13:46;;;;;;;1999.90;999.90;;;7.00;1.00;;;;;;4995436;28;20050;-89
2023/03/02 10:16:22;;;;;;;1999.90;999.90;;;6.70;1.00;;;;;;4977494;28;20050;-89
2023/03/02 10:18:52;;;;;;;1999.90;992.38;;;8.60;1.00;;;;;;4993787;28;20064;-89
2023/03/02 10:21:40;;;;;;;1999.90;999.90;;;6.60;1.00;;;;;;4981264;28;20055;-88
2023/03/02 10:24:11;;;;;;;1999.90;999.90;;;6.70;1.00;;;;;;4976109;28;20492;-88
2023/03/02 10:26:44;;;;;;;1999.90;999.90;;;9.80;1.00;;;;;;4974989;28;20047;-89
2023/03/02 10:29:12;;;;;;;1999.90;999.90;;;7.30;1.00;;;;;;4991718;28;20065;-89
2023/03/02 10:31:39;;;;;;;1999.90;999.90;;;7.20;1.00;;;;;;4995848;28;20298;-89
2023/03/02 10:34:09;;;;;;;1999.90;999.90;;;7.30;1.00;;;;;;4993919;28;20062;-88
2023/03/02 10:36:42;;;;;;;1999.90;999.90;;;7.30;1.00;;;;;;4993738;28;20309;-89
2023/03/02 10:39:13;;;;;;;1999.90;999.90;;;8.90;1.00;;;;;;4996084;28;20096;-89
2023/03/02 10:41:48;;;;;;;1999.90;999.90;;;8.20;1.00;;;;;;4995591;28;20057;-88
2023/03/02 10:44:35;;;;;;;1999.90;999.90;;;7.30;1.00;;;;;;4994233;28;20038;-89
2023/03/02 10:47:01;;;;;;;1999.90;999.90;;;8.30;1.00;;;;;;4978074;28;20090;-88
2023/03/02 10:49:29;;;;;;;1999.90;999.90;;;7.60;1.00;;;;;;4991549;28;20042;-89
2023/03/02 10:52:04;;;;;;;1999.90;999.90;;;7.70;1.00;;;;;;4995459;28;20085;-89
2023/03/02 10:54:32;;;;;;;1999.90;999.90;;;7.80;1.00;;;;;;4992735;28;20042;-89
2023/03/02 10:57:00;;;;;;;1999.90;999.90;;;7.80;99.90;;;;;;4994215;28;20046;-89
2023/03/02 10:59:46;;;;;;;1999.90;999.90;;;8.20;99.90;;;;;;4993137;28;20050;-88
2023/03/02 11:02:22;;;;;;;1999.90;999.90;;;7.20;1.00;;;;;;4994097;28;20050;-88
2023/03/02 11:04:52;;;;;;;1999.90;999.90;;;8.50;99.90;;;;;;4994843;28;20101;-88
2023/03/02 11:07:23;;;;;;;1999.90;999.90;;;8.60;99.90;;;;;;4994142;28;20046;-89
2023/03/02 11:10:04;;;;;;;1999.90;999.90;;;8.10;99.90;;;;;;4993809;28;20051;-89
2023/03/02 11:12:31;;;;;;;1999.90;999.90;;;8.20;99.90;;;;;;4995029;28;20050;-89
2023/03/02 11:15:13;;;;;;;1999.90;999.90;;;8.30;99.90;;;;;;4994637;28;20407;-88
2023/03/02 11:17:40;;;;;;;1999.90;999.90;;;7.60;99.90;;;;;;4995115;28;20285;-88
2023/03/02 11:20:19;;;;;;;1999.90;962.53;;;9.20;99.90;;;;;;4988380;28;20463;-89
2023/03/02 11:22:56;;;;;;;;;;;8.50;99.90;;;;;;4974350;28;20090;-89
2023/03/02 11:25:31;;;;;;;1999.90;999.90;;;8.70;99.90;;;;;;4974095;28;19962;-89
2023/03/02 11:28:04;;;;;;;1999.90;999.90;;;8.60;99.90;;;;;;4991988;28;20050;-89
2023/03/02 11:30:45;;;;;;;1999.90;999.90;;;8.60;99.90;;;;;;4993769;28;20051;-89
2023/03/02 11:33:19;;;;;;;1999.90;999.90;;;9.20;1.00;;;;;;4993049;28;20390;-88
2023/03/02 11:35:53;;;;;;;1999.90;777.85;;;8.60;99.90;;;;;;4994227;28;20050;-88
2023/03/02 11:38:32;;;;;;;1999.90;778.78;;;8.70;99.90;;;;;;4993308;28;20133;-89
2023/03/02 11:41:26;;;;;;;1999.90;979.72;;;8.90;99.90;;;;;;4994438;28;20054;-88
2023/03/02 11:44:00;;;;;;;1999.90;999.90;;;6.60;99.90;;;;;;4991865;28;20054;-89
2023/03/02 11:46:29;;;;;;;1999.90;999.90;;;8.90;99.90;;;;;;4993234;28;20499;-89
2023/03/02 11:49:02;;;;;;;1999.90;999.90;;;8.70;99.90;;;;;;4993018;28;20387;-89
2023/03/02 11:51:33;;;;;;;1999.90;999.90;;;9.20;99.90;;;;;;4992458;28;20388;-88
2023/03/02 11:54:02;;;;;;;1999.90;999.90;;;8.70;99.90;;;;;;4993941;28;20050;-88
2023/03/02 11:56:31;;;;;;;1999.90;994.55;;;8.80;99.90;;;;;;4992338;28;20522;-89
2023/03/02 11:59:00;;;;;;;1999.90;999.90;;;8.90;99.90;;;;;;4990740;28;20054;-88
2023/03/02 12:01:27;;;;;;;1999.90;999.90;;;8.10;99.90;;;;;;4993330;28;20058;-88
2023/03/02 12:03:53;;;;;;;1999.90;999.90;;;9.10;99.90;;;;;;4991805;28;20057;-88
2023/03/02 12:06:23;;;;;;;1999.90;999.90;;;8.50;99.90;;;;;;4993009;28;20305;-89
2023/03/02 12:08:52;;;;;;;1999.90;999.90;;;8.60;99.90;;;;;;4992449;28;20050;-88
2023/03/02 12:11:17;;;;;;;1999.90;999.90;;;7.90;99.90;;;;;;4993260;28;20403;-89
2023/03/02 12:13:49;;;;;;;1999.90;496.75;;;8.70;99.90;;;;;;4993649;28;20054;-89
2023/03/02 12:16:35;;;;;;;1999.90;766.25;;;9.20;99.90;;;;;;4975182;28;20043;-88
2023/03/02 12:19:24;;;;;;;1999.90;959.92;;;8.70;99.90;;;;;;4992317;28;20046;-88
2023/03/02 12:21:57;;;;;;;1999.90;848.63;;;8.80;99.90;;;;;;4973338;28;20053;-88
2023/03/02 12:24:25;;;;;;;1999.90;648.88;;;9.30;99.90;;;;;;4973353;28;20043;-88
2023/03/02 12:27:24;;;;;;;1999.90;797.00;;;10.50;99.90;;;;;;4987659;28;20038;-88
2023/03/02 12:30:23;;;;;;;1999.90;480.52;;;10.50;99.90;;;;;;4992930;28;20058;-88
2023/03/02 12:33:04;;;;;;;1999.90;392.23;;;10.60;99.90;;;;;;4991324;28;20058;-88
2023/03/02 12:35:32;;;;;;;1999.90;384.63;;;10.20;99.90;;;;;;4992597;28;20080;-88
2023/03/02 12:38:04;;;;;;;1999.90;793.90;;;10.20;99.90;;;;;;4992122;28;20501;-88
2023/03/02 12:41:08;;;;;;;1999.90;684.08;;;10.20;99.90;;;;;;4993029;28;20125;-88